Field, Kentucky
Current Conditions -  °F | °C
As of 11:15 PM on Friday 24 Oct 2014 (Local Time) from K1A6 Reporting Station
Clear Clear  
Wind Chill: 42°   Ceiling: Unl
Heat Index: 42°   Visibility: 10mi
Dew Point: 41°   Wind: 0mph
Humidity: 95%   Direction: NA
Pressure: 30.11"   Gusts: NA
Location:  36.7417°N, 83.6911°W
Report Text: K1A6 250315Z AUTO 00000KT 10SM CLR 06/05 A3011 RMK AO2 T00550048
Loading
Personal Weather Stations






























Interactive Weather Map
Tropical Storm Tracking
New forecast layout! Learn more

10-Day Weather Forecast

Advertisements
Track Severe Weather on mobile